sensor_id;sensor_type;location;lat;lon;timestamp;P1;durP1;ratioP1;P2;durP2;ratioP2
36457;SDS011;22480;50.546;12.292;2022-08-14T00:00:15;44.95;;;36.72;;
36457;SDS011;22480;50.546;12.292;2022-08-14T00:02:43;43.95;;;35.83;;
36457;SDS011;22480;50.546;12.292;2022-08-14T00:05:11;39.35;;;33.83;;
36457;SDS011;22480;50.546;12.292;2022-08-14T00:07:37;44.25;;;37.30;;
36457;SDS011;22480;50.546;12.292;2022-08-14T00:10:05;45.58;;;36.10;;
36457;SDS011;22480;50.546;12.292;2022-08-14T00:12:34;46.85;;;37.90;;
36457;SDS011;22480;50.546;12.292;2022-08-14T00:15:03;44.22;;;35.38;;
36457;SDS011;22480;50.546;12.292;2022-08-14T00:17:32;43.47;;;35.40;;
36457;SDS011;22480;50.546;12.292;2022-08-14T00:19:58;44.10;;;35.85;;
36457;SDS011;22480;50.546;12.292;2022-08-14T00:22:23;39.85;;;33.17;;
36457;SDS011;22480;50.546;12.292;2022-08-14T00:24:49;42.33;;;35.15;;
36457;SDS011;22480;50.546;12.292;2022-08-14T00:27:15;38.80;;;34.55;;
36457;SDS011;22480;50.546;12.292;2022-08-14T00:29:41;44.50;;;36.05;;
36457;SDS011;22480;50.546;12.292;2022-08-14T00:32:06;44.47;;;34.92;;
36457;SDS011;22480;50.546;12.292;2022-08-14T00:34:32;40.40;;;35.97;;
36457;SDS011;22480;50.546;12.292;2022-08-14T00:36:58;44.72;;;35.03;;
36457;SDS011;22480;50.546;12.292;2022-08-14T00:39:23;43.92;;;35.38;;
36457;SDS011;22480;50.546;12.292;2022-08-14T00:41:49;43.95;;;35.13;;
36457;SDS011;22480;50.546;12.292;2022-08-14T00:44:15;44.63;;;36.30;;
36457;SDS011;22480;50.546;12.292;2022-08-14T00:46:41;45.10;;;37.00;;
36457;SDS011;22480;50.546;12.292;2022-08-14T00:49:08;43.47;;;35.42;;
36457;SDS011;22480;50.546;12.292;2022-08-14T00:51:35;47.78;;;38.13;;
36457;SDS011;22480;50.546;12.292;2022-08-14T00:54:02;42.05;;;35.88;;
36457;SDS011;22480;50.546;12.292;2022-08-14T00:56:29;42.42;;;36.95;;
36457;SDS011;22480;50.546;12.292;2022-08-14T00:58:55;45.05;;;38.55;;
36457;SDS011;22480;50.546;12.292;2022-08-14T01:01:22;40.00;;;34.85;;
36457;SDS011;22480;50.546;12.292;2022-08-14T01:03:48;43.63;;;35.50;;
36457;SDS011;22480;50.546;12.292;2022-08-14T01:06:14;37.85;;;33.75;;
36457;SDS011;22480;50.546;12.292;2022-08-14T01:08:41;41.38;;;34.17;;
36457;SDS011;22480;50.546;12.292;2022-08-14T01:11:08;43.22;;;36.28;;
36457;SDS011;22480;50.546;12.292;2022-08-14T01:13:39;42.92;;;36.38;;
36457;SDS011;22480;50.546;12.292;2022-08-14T01:16:08;49.33;;;39.53;;
36457;SDS011;22480;50.546;12.292;2022-08-14T01:18:36;42.88;;;36.65;;
36457;SDS011;22480;50.546;12.292;2022-08-14T01:21:22;41.70;;;34.60;;
36457;SDS011;22480;50.546;12.292;2022-08-14T01:23:49;43.53;;;37.35;;
36457;SDS011;22480;50.546;12.292;2022-08-14T01:26:17;45.50;;;35.40;;
36457;SDS011;22480;50.546;12.292;2022-08-14T01:28:45;44.53;;;37.85;;
36457;SDS011;22480;50.546;12.292;2022-08-14T01:31:16;44.38;;;37.05;;
36457;SDS011;22480;50.546;12.292;2022-08-14T01:33:43;46.90;;;38.42;;
36457;SDS011;22480;50.546;12.292;2022-08-14T01:36:12;45.63;;;38.88;;
36457;SDS011;22480;50.546;12.292;2022-08-14T01:38:41;53.13;;;42.42;;
36457;SDS011;22480;50.546;12.292;2022-08-14T01:41:09;46.30;;;38.78;;
36457;SDS011;22480;50.546;12.292;2022-08-14T01:43:44;41.60;;;34.38;;
36457;SDS011;22480;50.546;12.292;2022-08-14T01:46:16;42.13;;;33.25;;
36457;SDS011;22480;50.546;12.292;2022-08-14T01:48:44;44.75;;;37.00;;
36457;SDS011;22480;50.546;12.292;2022-08-14T01:51:12;41.75;;;35.33;;
36457;SDS011;22480;50.546;12.292;2022-08-14T01:53:40;40.28;;;34.00;;
36457;SDS011;22480;50.546;12.292;2022-08-14T01:56:07;42.17;;;35.13;;
36457;SDS011;22480;50.546;12.292;2022-08-14T01:58:32;44.45;;;35.40;;
36457;SDS011;22480;50.546;12.292;2022-08-14T02:00:58;45.42;;;34.60;;
36457;SDS011;22480;50.546;12.292;2022-08-14T02:03:26;45.75;;;35.35;;
36457;SDS011;22480;50.546;12.292;2022-08-14T02:05:54;43.20;;;34.33;;
36457;SDS011;22480;50.546;12.292;2022-08-14T02:08:25;42.47;;;33.08;;
36457;SDS011;22480;50.546;12.292;2022-08-14T02:10:54;47.78;;;36.67;;
36457;SDS011;22480;50.546;12.292;2022-08-14T02:13:41;48.30;;;37.20;;
36457;SDS011;22480;50.546;12.292;2022-08-14T02:16:11;43.58;;;34.92;;
36457;SDS011;22480;50.546;12.292;2022-08-14T02:18:40;42.33;;;33.58;;
36457;SDS011;22480;50.546;12.292;2022-08-14T02:21:06;46.88;;;35.25;;
36457;SDS011;22480;50.546;12.292;2022-08-14T02:23:33;41.75;;;34.80;;
36457;SDS011;22480;50.546;12.292;2022-08-14T02:25:59;43.40;;;33.70;;
36457;SDS011;22480;50.546;12.292;2022-08-14T02:28:26;42.25;;;32.22;;
36457;SDS011;22480;50.546;12.292;2022-08-14T02:30:54;42.65;;;33.33;;
36457;SDS011;22480;50.546;12.292;2022-08-14T02:33:21;46.22;;;35.00;;
36457;SDS011;22480;50.546;12.292;2022-08-14T02:35:47;43.15;;;35.53;;
36457;SDS011;22480;50.546;12.292;2022-08-14T02:38:13;47.78;;;35.90;;
36457;SDS011;22480;50.546;12.292;2022-08-14T02:40:38;43.67;;;35.55;;
36457;SDS011;22480;50.546;12.292;2022-08-14T02:43:04;44.80;;;34.15;;
36457;SDS011;22480;50.546;12.292;2022-08-14T02:45:31;41.40;;;31.83;;
36457;SDS011;22480;50.546;12.292;2022-08-14T02:47:58;43.13;;;33.45;;
36457;SDS011;22480;50.546;12.292;2022-08-14T02:50:28;42.30;;;32.70;;
36457;SDS011;22480;50.546;12.292;2022-08-14T02:52:54;40.40;;;32.75;;
36457;SDS011;22480;50.546;12.292;2022-08-14T02:55:19;41.50;;;33.15;;
36457;SDS011;22480;50.546;12.292;2022-08-14T02:57:46;46.65;;;34.92;;
36457;SDS011;22480;50.546;12.292;2022-08-14T03:00:15;48.90;;;35.42;;
36457;SDS011;22480;50.546;12.292;2022-08-14T03:02:42;51.83;;;37.85;;
36457;SDS011;22480;50.546;12.292;2022-08-14T03:05:07;51.97;;;39.05;;
36457;SDS011;22480;50.546;12.292;2022-08-14T03:07:36;49.70;;;36.85;;
36457;SDS011;22480;50.546;12.292;2022-08-14T03:10:02;42.08;;;34.15;;
36457;SDS011;22480;50.546;12.292;2022-08-14T03:12:28;54.55;;;39.13;;
36457;SDS011;22480;50.546;12.292;2022-08-14T03:14:56;54.65;;;39.95;;
36457;SDS011;22480;50.546;12.292;2022-08-14T03:17:22;48.47;;;38.00;;
36457;SDS011;22480;50.546;12.292;2022-08-14T03:19:48;51.83;;;37.95;;
36457;SDS011;22480;50.546;12.292;2022-08-14T03:22:17;52.60;;;39.08;;
36457;SDS011;22480;50.546;12.292;2022-08-14T03:24:42;48.25;;;35.22;;
36457;SDS011;22480;50.546;12.292;2022-08-14T03:27:08;43.88;;;34.25;;
36457;SDS011;22480;50.546;12.292;2022-08-14T03:29:38;48.55;;;35.25;;
36457;SDS011;22480;50.546;12.292;2022-08-14T03:32:04;46.47;;;35.17;;
36457;SDS011;22480;50.546;12.292;2022-08-14T03:34:30;46.33;;;34.38;;
36457;SDS011;22480;50.546;12.292;2022-08-14T03:36:56;43.40;;;32.17;;
36457;SDS011;22480;50.546;12.292;2022-08-14T03:39:22;52.72;;;37.03;;
36457;SDS011;22480;50.546;12.292;2022-08-14T03:41:49;47.97;;;35.42;;
36457;SDS011;22480;50.546;12.292;2022-08-14T03:44:19;45.03;;;34.13;;
36457;SDS011;22480;50.546;12.292;2022-08-14T03:46:45;50.13;;;36.28;;
36457;SDS011;22480;50.546;12.292;2022-08-14T03:49:11;52.30;;;37.15;;
36457;SDS011;22480;50.546;12.292;2022-08-14T03:51:38;48.20;;;35.88;;
36457;SDS011;22480;50.546;12.292;2022-08-14T03:54:05;45.55;;;34.92;;
36457;SDS011;22480;50.546;12.292;2022-08-14T03:56:32;43.45;;;34.20;;
36457;SDS011;22480;50.546;12.292;2022-08-14T03:59:01;56.85;;;37.47;;
36457;SDS011;22480;50.546;12.292;2022-08-14T04:01:29;48.83;;;36.70;;
36457;SDS011;22480;50.546;12.292;2022-08-14T04:03:55;47.65;;;36.22;;
36457;SDS011;22480;50.546;12.292;2022-08-14T04:06:23;47.05;;;34.17;;
36457;SDS011;22480;50.546;12.292;2022-08-14T04:08:49;44.58;;;35.33;;
36457;SDS011;22480;50.546;12.292;2022-08-14T04:11:16;51.15;;;37.40;;
36457;SDS011;22480;50.546;12.292;2022-08-14T04:13:43;45.58;;;34.70;;
36457;SDS011;22480;50.546;12.292;2022-08-14T04:16:10;46.80;;;35.92;;
36457;SDS011;22480;50.546;12.292;2022-08-14T04:18:39;45.97;;;35.25;;
36457;SDS011;22480;50.546;12.292;2022-08-14T04:21:06;40.65;;;34.22;;
36457;SDS011;22480;50.546;12.292;2022-08-14T04:23:32;46.42;;;35.47;;
36457;SDS011;22480;50.546;12.292;2022-08-14T04:25:59;42.22;;;32.67;;
36457;SDS011;22480;50.546;12.292;2022-08-14T04:28:26;40.92;;;32.20;;
36457;SDS011;22480;50.546;12.292;2022-08-14T04:30:51;44.88;;;33.80;;
36457;SDS011;22480;50.546;12.292;2022-08-14T04:33:17;48.50;;;37.50;;
36457;SDS011;22480;50.546;12.292;2022-08-14T04:35:43;50.05;;;36.97;;
36457;SDS011;22480;50.546;12.292;2022-08-14T04:38:09;49.72;;;37.22;;
36457;SDS011;22480;50.546;12.292;2022-08-14T04:40:54;45.65;;;35.83;;
36457;SDS011;22480;50.546;12.292;2022-08-14T04:43:39;44.40;;;34.42;;
36457;SDS011;22480;50.546;12.292;2022-08-14T04:46:06;41.70;;;32.22;;
36457;SDS011;22480;50.546;12.292;2022-08-14T04:48:38;40.95;;;32.97;;
36457;SDS011;22480;50.546;12.292;2022-08-14T04:51:06;39.75;;;32.47;;
36457;SDS011;22480;50.546;12.292;2022-08-14T04:53:34;38.45;;;32.55;;
36457;SDS011;22480;50.546;12.292;2022-08-14T04:56:03;38.97;;;32.40;;
36457;SDS011;22480;50.546;12.292;2022-08-14T04:58:30;38.15;;;31.92;;
36457;SDS011;22480;50.546;12.292;2022-08-14T05:00:56;35.63;;;30.40;;
36457;SDS011;22480;50.546;12.292;2022-08-14T05:03:24;35.55;;;28.30;;
36457;SDS011;22480;50.546;12.292;2022-08-14T05:05:52;35.90;;;29.23;;
36457;SDS011;22480;50.546;12.292;2022-08-14T05:08:20;38.00;;;31.17;;
36457;SDS011;22480;50.546;12.292;2022-08-14T05:10:47;35.50;;;30.50;;
36457;SDS011;22480;50.546;12.292;2022-08-14T05:13:16;38.60;;;31.73;;
36457;SDS011;22480;50.546;12.292;2022-08-14T05:15:42;37.47;;;30.83;;
36457;SDS011;22480;50.546;12.292;2022-08-14T05:18:19;40.75;;;32.53;;
36457;SDS011;22480;50.546;12.292;2022-08-14T05:20:50;43.45;;;33.83;;
36457;SDS011;22480;50.546;12.292;2022-08-14T05:23:22;39.00;;;31.15;;
36457;SDS011;22480;50.546;12.292;2022-08-14T05:25:50;34.53;;;30.73;;
36457;SDS011;22480;50.546;12.292;2022-08-14T05:28:24;32.22;;;28.15;;
36457;SDS011;22480;50.546;12.292;2022-08-14T05:30:51;29.52;;;26.17;;
36457;SDS011;22480;50.546;12.292;2022-08-14T05:33:22;26.75;;;24.13;;
36457;SDS011;22480;50.546;12.292;2022-08-14T05:35:50;22.48;;;20.25;;
36457;SDS011;22480;50.546;12.292;2022-08-14T05:38:18;20.23;;;18.33;;
36457;SDS011;22480;50.546;12.292;2022-08-14T05:40:46;17.47;;;15.87;;
36457;SDS011;22480;50.546;12.292;2022-08-14T05:43:14;16.85;;;15.35;;
36457;SDS011;22480;50.546;12.292;2022-08-14T05:45:40;14.85;;;13.45;;
36457;SDS011;22480;50.546;12.292;2022-08-14T05:48:06;15.05;;;13.65;;
36457;SDS011;22480;50.546;12.292;2022-08-14T05:50:32;14.50;;;13.10;;
36457;SDS011;22480;50.546;12.292;2022-08-14T05:52:59;14.60;;;13.30;;
36457;SDS011;22480;50.546;12.292;2022-08-14T05:55:25;13.82;;;12.55;;
36457;SDS011;22480;50.546;12.292;2022-08-14T05:57:52;13.00;;;11.90;;
36457;SDS011;22480;50.546;12.292;2022-08-14T06:00:21;14.48;;;13.13;;
36457;SDS011;22480;50.546;12.292;2022-08-14T06:02:48;15.85;;;14.35;;
36457;SDS011;22480;50.546;12.292;2022-08-14T06:05:14;15.20;;;13.75;;
36457;SDS011;22480;50.546;12.292;2022-08-14T06:07:39;14.90;;;13.50;;
36457;SDS011;22480;50.546;12.292;2022-08-14T06:10:06;12.60;;;11.50;;
36457;SDS011;22480;50.546;12.292;2022-08-14T06:12:33;14.00;;;12.73;;
36457;SDS011;22480;50.546;12.292;2022-08-14T06:15:00;14.93;;;13.43;;
36457;SDS011;22480;50.546;12.292;2022-08-14T06:17:26;15.23;;;13.82;;
36457;SDS011;22480;50.546;12.292;2022-08-14T06:19:52;15.52;;;14.13;;
36457;SDS011;22480;50.546;12.292;2022-08-14T06:22:18;14.95;;;13.65;;
36457;SDS011;22480;50.546;12.292;2022-08-14T06:24:44;13.90;;;12.63;;
36457;SDS011;22480;50.546;12.292;2022-08-14T06:27:09;13.80;;;12.68;;
36457;SDS011;22480;50.546;12.292;2022-08-14T06:29:35;12.80;;;11.70;;
36457;SDS011;22480;50.546;12.292;2022-08-14T06:32:02;13.45;;;12.25;;
36457;SDS011;22480;50.546;12.292;2022-08-14T06:34:28;13.73;;;12.38;;
36457;SDS011;22480;50.546;12.292;2022-08-14T06:36:54;13.70;;;12.40;;
36457;SDS011;22480;50.546;12.292;2022-08-14T06:39:21;13.73;;;12.30;;
36457;SDS011;22480;50.546;12.292;2022-08-14T06:41:47;13.88;;;12.50;;
36457;SDS011;22480;50.546;12.292;2022-08-14T06:44:13;14.60;;;12.45;;
36457;SDS011;22480;50.546;12.292;2022-08-14T06:46:39;13.50;;;12.15;;
36457;SDS011;22480;50.546;12.292;2022-08-14T06:49:05;14.77;;;13.48;;
36457;SDS011;22480;50.546;12.292;2022-08-14T06:51:31;12.95;;;11.80;;
36457;SDS011;22480;50.546;12.292;2022-08-14T06:53:57;12.98;;;11.85;;
36457;SDS011;22480;50.546;12.292;2022-08-14T06:56:22;12.35;;;10.73;;
36457;SDS011;22480;50.546;12.292;2022-08-14T06:58:48;12.82;;;11.52;;
36457;SDS011;22480;50.546;12.292;2022-08-14T07:01:14;11.63;;;10.63;;
36457;SDS011;22480;50.546;12.292;2022-08-14T07:03:59;12.00;;;10.98;;
36457;SDS011;22480;50.546;12.292;2022-08-14T07:06:43;10.80;;;9.82;;
36457;SDS011;22480;50.546;12.292;2022-08-14T07:09:09;10.38;;;9.38;;
36457;SDS011;22480;50.546;12.292;2022-08-14T07:11:35;10.23;;;9.15;;
36457;SDS011;22480;50.546;12.292;2022-08-14T07:14:01;10.43;;;9.48;;
36457;SDS011;22480;50.546;12.292;2022-08-14T07:16:27;10.15;;;9.25;;
36457;SDS011;22480;50.546;12.292;2022-08-14T07:18:53;9.77;;;8.80;;
36457;SDS011;22480;50.546;12.292;2022-08-14T07:21:18;11.15;;;10.10;;
36457;SDS011;22480;50.546;12.292;2022-08-14T07:23:44;10.70;;;9.60;;
36457;SDS011;22480;50.546;12.292;2022-08-14T07:26:10;11.38;;;10.27;;
36457;SDS011;22480;50.546;12.292;2022-08-14T07:28:37;11.02;;;9.73;;
36457;SDS011;22480;50.546;12.292;2022-08-14T07:31:06;11.00;;;9.98;;
36457;SDS011;22480;50.546;12.292;2022-08-14T07:33:41;11.32;;;9.98;;
36457;SDS011;22480;50.546;12.292;2022-08-14T07:36:10;11.32;;;9.77;;
36457;SDS011;22480;50.546;12.292;2022-08-14T07:38:37;10.27;;;9.38;;
36457;SDS011;22480;50.546;12.292;2022-08-14T07:41:07;10.45;;;9.48;;
36457;SDS011;22480;50.546;12.292;2022-08-14T07:43:34;9.73;;;8.82;;
36457;SDS011;22480;50.546;12.292;2022-08-14T07:46:01;8.32;;;7.63;;
36457;SDS011;22480;50.546;12.292;2022-08-14T07:48:27;9.95;;;9.00;;
36457;SDS011;22480;50.546;12.292;2022-08-14T07:50:53;10.68;;;9.50;;
36457;SDS011;22480;50.546;12.292;2022-08-14T07:53:20;8.73;;;7.93;;
36457;SDS011;22480;50.546;12.292;2022-08-14T07:55:46;10.27;;;8.63;;
36457;SDS011;22480;50.546;12.292;2022-08-14T07:58:12;10.02;;;8.80;;
36457;SDS011;22480;50.546;12.292;2022-08-14T08:00:39;9.10;;;8.23;;
36457;SDS011;22480;50.546;12.292;2022-08-14T08:03:06;8.55;;;7.72;;
36457;SDS011;22480;50.546;12.292;2022-08-14T08:05:34;8.82;;;8.13;;
36457;SDS011;22480;50.546;12.292;2022-08-14T08:10:30;8.43;;;7.65;;
36457;SDS011;22480;50.546;12.292;2022-08-14T08:15:26;8.23;;;7.57;;
36457;SDS011;22480;50.546;12.292;2022-08-14T08:17:54;8.20;;;7.18;;
36457;SDS011;22480;50.546;12.292;2022-08-14T08:20:22;7.68;;;6.95;;
36457;SDS011;22480;50.546;12.292;2022-08-14T08:22:51;7.63;;;6.65;;
36457;SDS011;22480;50.546;12.292;2022-08-14T08:25:19;10.57;;;7.15;;
36457;SDS011;22480;50.546;12.292;2022-08-14T08:30:25;8.32;;;6.90;;
36457;SDS011;22480;50.546;12.292;2022-08-14T08:32:52;9.18;;;7.55;;
36457;SDS011;22480;50.546;12.292;2022-08-14T08:35:22;8.48;;;7.68;;
36457;SDS011;22480;50.546;12.292;2022-08-14T08:37:52;8.40;;;7.65;;
36457;SDS011;22480;50.546;12.292;2022-08-14T08:40:25;7.57;;;6.88;;
36457;SDS011;22480;50.546;12.292;2022-08-14T08:42:52;8.20;;;6.70;;
36457;SDS011;22480;50.546;12.292;2022-08-14T08:45:19;7.10;;;6.32;;
36457;SDS011;22480;50.546;12.292;2022-08-14T08:47:46;9.45;;;7.38;;
36457;SDS011;22480;50.546;12.292;2022-08-14T08:50:16;7.00;;;6.30;;
36457;SDS011;22480;50.546;12.292;2022-08-14T08:52:52;6.55;;;5.40;;
36457;SDS011;22480;50.546;12.292;2022-08-14T08:55:29;7.35;;;6.70;;
36457;SDS011;22480;50.546;12.292;2022-08-14T08:57:59;8.65;;;6.55;;
36457;SDS011;22480;50.546;12.292;2022-08-14T09:00:28;6.40;;;5.80;;
36457;SDS011;22480;50.546;12.292;2022-08-14T09:03:07;6.35;;;5.75;;
36457;SDS011;22480;50.546;12.292;2022-08-14T09:05:35;6.63;;;5.93;;
36457;SDS011;22480;50.546;12.292;2022-08-14T09:08:09;6.97;;;6.30;;
36457;SDS011;22480;50.546;12.292;2022-08-14T09:10:40;6.93;;;6.32;;
36457;SDS011;22480;50.546;12.292;2022-08-14T09:13:06;8.23;;;6.30;;
36457;SDS011;22480;50.546;12.292;2022-08-14T09:15:32;6.55;;;5.95;;
36457;SDS011;22480;50.546;12.292;2022-08-14T09:17:58;7.93;;;6.85;;
36457;SDS011;22480;50.546;12.292;2022-08-14T09:20:24;7.30;;;6.70;;
36457;SDS011;22480;50.546;12.292;2022-08-14T09:22:50;7.63;;;6.50;;
36457;SDS011;22480;50.546;12.292;2022-08-14T09:25:18;7.32;;;6.43;;
36457;SDS011;22480;50.546;12.292;2022-08-14T09:27:43;7.70;;;6.90;;
36457;SDS011;22480;50.546;12.292;2022-08-14T09:30:09;7.03;;;6.07;;
36457;SDS011;22480;50.546;12.292;2022-08-14T09:33:19;7.03;;;6.32;;
36457;SDS011;22480;50.546;12.292;2022-08-14T09:35:29;6.63;;;5.82;;
36457;SDS011;22480;50.546;12.292;2022-08-14T09:43:58;6.82;;;6.03;;
36457;SDS011;22480;50.546;12.292;2022-08-14T09:46:30;9.88;;;6.40;;
36457;SDS011;22480;50.546;12.292;2022-08-14T09:48:59;6.65;;;6.05;;
36457;SDS011;22480;50.546;12.292;2022-08-14T09:51:30;7.22;;;5.90;;
36457;SDS011;22480;50.546;12.292;2022-08-14T09:54:06;6.97;;;6.28;;
36457;SDS011;22480;50.546;12.292;2022-08-14T09:56:43;6.85;;;6.22;;
36457;SDS011;22480;50.546;12.292;2022-08-14T09:59:11;7.68;;;6.32;;
36457;SDS011;22480;50.546;12.292;2022-08-14T10:01:38;6.80;;;6.20;;
36457;SDS011;22480;50.546;12.292;2022-08-14T10:04:05;7.35;;;6.68;;
36457;SDS011;22480;50.546;12.292;2022-08-14T10:06:43;7.22;;;6.50;;
36457;SDS011;22480;50.546;12.292;2022-08-14T10:09:09;7.30;;;6.00;;
36457;SDS011;22480;50.546;12.292;2022-08-14T10:11:36;9.40;;;6.53;;
36457;SDS011;22480;50.546;12.292;2022-08-14T10:14:20;6.65;;;6.05;;
36457;SDS011;22480;50.546;12.292;2022-08-14T10:16:50;7.35;;;6.18;;
36457;SDS011;22480;50.546;12.292;2022-08-14T10:19:19;7.28;;;5.47;;
36457;SDS011;22480;50.546;12.292;2022-08-14T10:24:26;6.32;;;5.72;;
36457;SDS011;22480;50.546;12.292;2022-08-14T10:26:55;6.40;;;5.80;;
36457;SDS011;22480;50.546;12.292;2022-08-14T10:29:36;6.78;;;5.85;;
36457;SDS011;22480;50.546;12.292;2022-08-14T10:32:05;6.47;;;5.80;;
36457;SDS011;22480;50.546;12.292;2022-08-14T10:34:37;5.85;;;5.25;;
36457;SDS011;22480;50.546;12.292;2022-08-14T10:37:05;6.07;;;5.47;;
36457;SDS011;22480;50.546;12.292;2022-08-14T10:39:36;6.97;;;5.50;;
36457;SDS011;22480;50.546;12.292;2022-08-14T10:42:04;7.28;;;6.13;;
36457;SDS011;22480;50.546;12.292;2022-08-14T10:44:36;6.13;;;5.57;;
36457;SDS011;22480;50.546;12.292;2022-08-14T10:47:05;6.60;;;5.65;;
36457;SDS011;22480;50.546;12.292;2022-08-14T10:52:10;6.07;;;5.15;;
36457;SDS011;22480;50.546;12.292;2022-08-14T10:54:44;6.13;;;5.18;;
36457;SDS011;22480;50.546;12.292;2022-08-14T11:02:33;5.40;;;4.82;;
36457;SDS011;22480;50.546;12.292;2022-08-14T11:05:03;6.72;;;5.40;;
36457;SDS011;22480;50.546;12.292;2022-08-14T11:07:33;5.28;;;4.72;;
36457;SDS011;22480;50.546;12.292;2022-08-14T11:10:03;7.28;;;4.97;;
36457;SDS011;22480;50.546;12.292;2022-08-14T11:12:42;5.28;;;4.78;;
36457;SDS011;22480;50.546;12.292;2022-08-14T11:15:16;5.97;;;4.72;;
36457;SDS011;22480;50.546;12.292;2022-08-14T11:17:43;7.75;;;4.60;;
36457;SDS011;22480;50.546;12.292;2022-08-14T11:20:11;8.20;;;4.50;;
36457;SDS011;22480;50.546;12.292;2022-08-14T11:22:38;4.93;;;4.53;;
36457;SDS011;22480;50.546;12.292;2022-08-14T11:25:09;4.90;;;4.40;;
36457;SDS011;22480;50.546;12.292;2022-08-14T11:27:38;5.95;;;4.38;;
36457;SDS011;22480;50.546;12.292;2022-08-14T11:30:10;7.35;;;4.32;;
36457;SDS011;22480;50.546;12.292;2022-08-14T11:32:38;4.93;;;4.47;;
36457;SDS011;22480;50.546;12.292;2022-08-14T11:35:10;5.03;;;4.55;;
36457;SDS011;22480;50.546;12.292;2022-08-14T11:37:47;5.50;;;4.50;;
36457;SDS011;22480;50.546;12.292;2022-08-14T11:40:17;5.60;;;4.53;;
36457;SDS011;22480;50.546;12.292;2022-08-14T11:42:46;4.53;;;4.13;;
36457;SDS011;22480;50.546;12.292;2022-08-14T11:45:13;5.63;;;4.53;;
36457;SDS011;22480;50.546;12.292;2022-08-14T11:47:39;5.68;;;4.70;;
36457;SDS011;22480;50.546;12.292;2022-08-14T11:50:12;4.70;;;4.30;;
36457;SDS011;22480;50.546;12.292;2022-08-14T11:52:41;4.45;;;4.07;;
36457;SDS011;22480;50.546;12.292;2022-08-14T11:55:09;5.10;;;4.47;;
36457;SDS011;22480;50.546;12.292;2022-08-14T11:57:37;5.22;;;4.72;;
36457;SDS011;22480;50.546;12.292;2022-08-14T12:00:12;6.05;;;4.80;;
36457;SDS011;22480;50.546;12.292;2022-08-14T12:02:48;5.28;;;4.70;;
36457;SDS011;22480;50.546;12.292;2022-08-14T12:08:13;6.25;;;4.38;;
36457;SDS011;22480;50.546;12.292;2022-08-14T12:10:41;4.93;;;4.22;;
36457;SDS011;22480;50.546;12.292;2022-08-14T12:13:10;4.57;;;4.18;;
36457;SDS011;22480;50.546;12.292;2022-08-14T12:15:38;5.20;;;4.70;;
36457;SDS011;22480;50.546;12.292;2022-08-14T12:18:05;6.20;;;4.88;;
36457;SDS011;22480;50.546;12.292;2022-08-14T12:20:32;5.22;;;4.00;;
36457;SDS011;22480;50.546;12.292;2022-08-14T12:23:00;4.88;;;4.47;;
36457;SDS011;22480;50.546;12.292;2022-08-14T12:25:31;5.63;;;4.53;;
36457;SDS011;22480;50.546;12.292;2022-08-14T12:27:57;4.68;;;4.28;;
36457;SDS011;22480;50.546;12.292;2022-08-14T12:30:30;4.20;;;3.65;;
36457;SDS011;22480;50.546;12.292;2022-08-14T12:33:05;4.47;;;4.07;;
36457;SDS011;22480;50.546;12.292;2022-08-14T12:35:44;6.70;;;4.40;;
36457;SDS011;22480;50.546;12.292;2022-08-14T12:38:10;4.43;;;3.85;;
36457;SDS011;22480;50.546;12.292;2022-08-14T12:40:52;5.30;;;3.70;;
36457;SDS011;22480;50.546;12.292;2022-08-14T12:43:18;4.88;;;4.38;;
36457;SDS011;22480;50.546;12.292;2022-08-14T12:45:46;6.43;;;4.45;;
36457;SDS011;22480;50.546;12.292;2022-08-14T12:48:14;4.53;;;3.90;;
36457;SDS011;22480;50.546;12.292;2022-08-14T12:50:43;4.93;;;4.10;;
36457;SDS011;22480;50.546;12.292;2022-08-14T12:53:10;5.25;;;4.00;;
36457;SDS011;22480;50.546;12.292;2022-08-14T12:55:37;5.00;;;3.60;;
36457;SDS011;22480;50.546;12.292;2022-08-14T12:58:04;5.60;;;4.18;;
36457;SDS011;22480;50.546;12.292;2022-08-14T13:00:34;5.75;;;4.20;;
36457;SDS011;22480;50.546;12.292;2022-08-14T13:03:03;5.47;;;3.92;;
36457;SDS011;22480;50.546;12.292;2022-08-14T13:05:32;6.57;;;4.28;;
36457;SDS011;22480;50.546;12.292;2022-08-14T13:08:03;5.22;;;4.13;;
36457;SDS011;22480;50.546;12.292;2022-08-14T13:10:33;4.20;;;3.80;;
36457;SDS011;22480;50.546;12.292;2022-08-14T13:12:59;4.45;;;4.05;;
36457;SDS011;22480;50.546;12.292;2022-08-14T13:15:26;4.57;;;3.83;;
36457;SDS011;22480;50.546;12.292;2022-08-14T13:17:53;4.45;;;3.63;;
36457;SDS011;22480;50.546;12.292;2022-08-14T13:20:21;5.13;;;4.10;;
36457;SDS011;22480;50.546;12.292;2022-08-14T13:22:49;5.97;;;4.10;;
36457;SDS011;22480;50.546;12.292;2022-08-14T13:25:16;4.38;;;3.78;;
36457;SDS011;22480;50.546;12.292;2022-08-14T13:27:46;9.50;;;4.13;;
36457;SDS011;22480;50.546;12.292;2022-08-14T13:32:40;6.97;;;3.75;;
36457;SDS011;22480;50.546;12.292;2022-08-14T13:35:12;4.00;;;3.28;;
36457;SDS011;22480;50.546;12.292;2022-08-14T13:37:42;3.67;;;3.35;;
36457;SDS011;22480;50.546;12.292;2022-08-14T13:40:10;4.90;;;3.70;;
36457;SDS011;22480;50.546;12.292;2022-08-14T13:42:37;4.60;;;3.72;;
36457;SDS011;22480;50.546;12.292;2022-08-14T13:45:09;6.13;;;3.60;;
36457;SDS011;22480;50.546;12.292;2022-08-14T13:47:36;4.78;;;3.90;;
36457;SDS011;22480;50.546;12.292;2022-08-14T13:50:04;6.43;;;3.85;;
36457;SDS011;22480;50.546;12.292;2022-08-14T13:52:33;3.67;;;3.30;;
36457;SDS011;22480;50.546;12.292;2022-08-14T13:55:10;4.35;;;3.60;;
36457;SDS011;22480;50.546;12.292;2022-08-14T13:57:40;7.38;;;3.03;;
36457;SDS011;22480;50.546;12.292;2022-08-14T14:00:08;5.85;;;3.47;;
36457;SDS011;22480;50.546;12.292;2022-08-14T14:02:42;5.88;;;3.65;;
36457;SDS011;22480;50.546;12.292;2022-08-14T14:05:09;4.47;;;3.67;;
36457;SDS011;22480;50.546;12.292;2022-08-14T14:07:46;5.60;;;4.55;;
36457;SDS011;22480;50.546;12.292;2022-08-14T14:10:14;5.05;;;4.18;;
36457;SDS011;22480;50.546;12.292;2022-08-14T14:12:41;6.93;;;4.05;;
36457;SDS011;22480;50.546;12.292;2022-08-14T14:15:09;4.88;;;4.40;;
36457;SDS011;22480;50.546;12.292;2022-08-14T14:17:38;4.95;;;4.28;;
36457;SDS011;22480;50.546;12.292;2022-08-14T14:20:04;6.03;;;4.18;;
36457;SDS011;22480;50.546;12.292;2022-08-14T14:22:35;5.03;;;3.92;;
36457;SDS011;22480;50.546;12.292;2022-08-14T14:25:11;4.22;;;3.45;;
36457;SDS011;22480;50.546;12.292;2022-08-14T14:27:40;4.82;;;3.45;;
36457;SDS011;22480;50.546;12.292;2022-08-14T14:30:09;3.95;;;3.60;;
36457;SDS011;22480;50.546;12.292;2022-08-14T14:32:37;4.18;;;3.55;;
36457;SDS011;22480;50.546;12.292;2022-08-14T14:35:12;5.63;;;3.63;;
36457;SDS011;22480;50.546;12.292;2022-08-14T14:37:41;4.15;;;3.00;;
36457;SDS011;22480;50.546;12.292;2022-08-14T14:40:08;3.97;;;3.03;;
36457;SDS011;22480;50.546;12.292;2022-08-14T14:42:48;4.75;;;3.00;;
36457;SDS011;22480;50.546;12.292;2022-08-14T14:45:19;4.47;;;3.57;;
36457;SDS011;22480;50.546;12.292;2022-08-14T14:47:48;5.15;;;3.40;;
36457;SDS011;22480;50.546;12.292;2022-08-14T14:50:18;5.28;;;3.55;;
36457;SDS011;22480;50.546;12.292;2022-08-14T14:52:46;4.32;;;3.50;;
36457;SDS011;22480;50.546;12.292;2022-08-14T14:55:13;4.55;;;3.72;;
36457;SDS011;22480;50.546;12.292;2022-08-14T14:57:40;4.38;;;3.97;;